Versión en castellano
places Weather data articles

Conditions at Mairena del Aljarafe, Sevilla, Spain
Year Month Day Show

  Date        time        Out Temp.    Out hum.   Wind Dir.    Wind speed   SL Pressure   In T. Today rain 

   24-11-2020    12:30      13.8º(-1.1)     69%      022 (N)      3.2 km/h    1024.0 hpa     22.4º    0.0 mm
   24-11-2020    12:25      13.7º(-1.1)     69%      045(NE)      4.8 km/h    1024.2 hpa     22.6º    0.0 mm
   24-11-2020    12:20      13.6º(-1.1)     70%      045(NE)      4.8 km/h    1024.1 hpa     22.6º    0.0 mm
   24-11-2020    12:15      13.5º(-1.2)     70%      022 (N)      4.8 km/h    1024.3 hpa     22.6º    0.0 mm
   24-11-2020    12:10      13.4º(-1.2)     70%      067(NE)      4.8 km/h    1024.4 hpa     22.7º    0.0 mm
   24-11-2020    12:05      13.3º(-1.1)     70%      045(NE)      4.8 km/h    1024.4 hpa     22.7º    0.0 mm
   24-11-2020    12:00      13.4º(-0.8)     70%      045(NE)      6.4 km/h    1024.4 hpa     22.7º    0.0 mm
   24-11-2020    11:55      13.3º(-0.9)     72%      067(NE)      4.8 km/h    1024.5 hpa     22.8º    0.0 mm
   24-11-2020    11:50      13.0º(-0.9)     73%      045(NE)      4.8 km/h    1024.5 hpa     22.8º    0.0 mm
   24-11-2020    11:45      12.7º(-1.0)     74%      045(NE)      4.8 km/h    1024.5 hpa     22.8º    0.0 mm
   24-11-2020    11:40      12.5º(-1.0)     74%      045(NE)      6.4 km/h    1024.7 hpa     22.8º    0.0 mm
   24-11-2020    11:35      12.4º(-0.9)     74%      045(NE)      4.8 km/h    1024.8 hpa     22.8º    0.0 mm
   24-11-2020    11:30      12.3º(-0.9)     75%      067(NE)      4.8 km/h    1024.7 hpa     22.8º    0.0 mm
   24-11-2020    11:25      12.1º(-0.8)     75%      045(NE)      6.4 km/h    1024.8 hpa     22.8º    0.0 mm
   24-11-2020    11:20      11.9º(-0.9)     75%      045(NE)      6.4 km/h    1024.9 hpa     22.8º    0.0 mm
   24-11-2020    11:15      11.9º(-1.0)     75%      045(NE)      4.8 km/h    1024.9 hpa     22.8º    0.0 mm
   24-11-2020    11:10      11.7º(-1.2)     75%      045(NE)      4.8 km/h    1024.9 hpa     22.8º    0.0 mm
   24-11-2020    11:05      11.6º(-1.2)     75%      045(NE)      6.4 km/h    1024.9 hpa     22.8º    0.0 mm
   24-11-2020    11:00      11.5º(-1.1)     76%      045(NE)      4.8 km/h    1025.0 hpa     22.8º    0.0 mm
   24-11-2020    10:55      11.3º(-1.3)     76%      045(NE)      3.2 km/h    1024.9 hpa     22.9º    0.0 mm
   24-11-2020    10:50      11.1º(-1.2)     76%      045(NE)      4.8 km/h    1025.0 hpa     22.9º    0.0 mm
   24-11-2020    10:45      11.0º(-1.1)     76%      045(NE)      6.4 km/h    1024.9 hpa     22.9º    0.0 mm
   24-11-2020    10:40      11.0º(-1.0)     76%      022 (N)      6.4 km/h    1024.9 hpa     22.9º    0.0 mm
   24-11-2020    10:35      11.0º(-0.7)     76%      067(NE)      4.8 km/h    1024.9 hpa     22.9º    0.0 mm
   24-11-2020    10:30      11.0º(-0.4)     76%      067(NE)      6.4 km/h    1024.7 hpa     22.9º    0.0 mm
   24-11-2020    10:25      11.0º(-0.2)     76%      045(NE)      6.4 km/h    1024.7 hpa     23.1º    0.0 mm
   24-11-2020    10:20      11.0º(+0.0)     76%      045(NE)      6.4 km/h    1024.6 hpa     23.1º    0.0 mm
   24-11-2020    10:15      10.9º(+0.0)     77%      045(NE)      4.8 km/h    1024.7 hpa     23.1º    0.0 mm
   24-11-2020    10:10      10.8º(+0.0)     77%      045(NE)      6.4 km/h    1024.7 hpa     23.1º    0.0 mm
   24-11-2020    10:05      10.6º(+0.2)     79%      045(NE)      6.4 km/h    1024.7 hpa     23.1º    0.0 mm
   24-11-2020    10:00      10.4º(+0.1)     78%      067(NE)      6.4 km/h    1024.7 hpa     23.1º    0.0 mm
   24-11-2020    09:55      10.3º(-0.0)     79%      045(NE)      6.4 km/h    1024.7 hpa     23.1º    0.0 mm
   24-11-2020    09:50      10.2º(-0.2)     79%      045(NE)      6.4 km/h    1024.7 hpa     22.9º    0.0 mm
   24-11-2020    09:45      10.2º(-0.1)     80%      045(NE)      4.8 km/h    1024.6 hpa     22.9º    0.0 mm
   24-11-2020    09:40      10.1º(-0.1)     81%      045(NE)      4.8 km/h    1024.7 hpa     22.9º    0.0 mm
   24-11-2020    09:35       9.9º(-0.2)     81%      022 (N)      6.4 km/h    1024.6 hpa     22.9º    0.0 mm
   24-11-2020    09:30       9.8º(-0.3)     81%      045(NE)      4.8 km/h    1024.6 hpa     22.8º    0.0 mm
   24-11-2020    09:25       9.7º(-0.3)     82%      045(NE)      6.4 km/h    1024.7 hpa     22.8º    0.0 mm
   24-11-2020    09:20       9.6º(-0.4)     82%      045(NE)      6.4 km/h    1024.5 hpa     22.8º    0.0 mm
   24-11-2020    09:15       9.5º(-0.4)     82%      045(NE)      6.4 km/h    1024.6 hpa     22.8º    0.0 mm
   24-11-2020    09:10       9.4º(-0.4)     82%      045(NE)      4.8 km/h    1024.5 hpa     22.8º    0.0 mm
   24-11-2020    09:05       9.4º(-0.3)     82%      045(NE)      4.8 km/h    1024.4 hpa     22.8º    0.0 mm
   24-11-2020    09:00       9.4º(-0.2)     83%      045(NE)      4.8 km/h    1024.3 hpa     22.8º    0.0 mm
   24-11-2020    08:55       9.3º(-0.1)     82%      045(NE)      6.4 km/h    1024.4 hpa     22.8º    0.0 mm
   24-11-2020    08:50       9.3º(-0.1)     83%      045(NE)      6.4 km/h    1024.2 hpa     22.8º    0.0 mm
   24-11-2020    08:45       9.3º(-0.0)     83%      045(NE)      4.8 km/h    1024.1 hpa     22.8º    0.0 mm
   24-11-2020    08:40       9.3º(-0.0)     83%      045(NE)      8.0 km/h    1024.3 hpa     22.7º    0.0 mm
   24-11-2020    08:35        - º(----)      -%         -          -  km/h    1024.2 hpa     22.7º    0.0 mm
   24-11-2020    08:30        - º(----)      -%         -          -  km/h    1024.2 hpa     22.7º    0.0 mm
   24-11-2020    08:25        - º(----)      -%         -          -  km/h    1024.1 hpa     22.7º    0.0 mm
   24-11-2020    08:20        - º(----)      -%         -          -  km/h    1024.3 hpa     22.6º    0.0 mm
   24-11-2020    08:15        - º(----)      -%         -          -  km/h    1024.3 hpa     22.6º    0.0 mm
   24-11-2020    08:10        - º(----)      -%         -          -  km/h    1024.3 hpa     22.6º    0.0 mm
   24-11-2020    08:05        - º(----)      -%         -          -  km/h    1024.3 hpa     22.4º    0.0 mm
   24-11-2020    08:00        - º(----)      -%         -          -  km/h    1024.3 hpa     22.4º    0.0 mm
   24-11-2020    07:55        - º(----)      -%         -          -  km/h    1024.2 hpa     22.4º    0.0 mm
   24-11-2020    07:50        - º(----)      -%         -          -  km/h    1024.1 hpa     22.4º    0.0 mm
   24-11-2020    07:45        - º(----)      -%         -          -  km/h    1024.1 hpa     22.3º    0.0 mm
   24-11-2020    07:40        - º(----)      -%         -          -  km/h    1024.1 hpa     22.2º    0.0 mm
   24-11-2020    07:35        - º(----)      -%         -          -  km/h    1024.1 hpa     22.2º    0.0 mm
   24-11-2020    07:30        - º(----)      -%         -          -  km/h    1023.9 hpa     22.1º    0.0 mm
   24-11-2020    07:25        - º(----)      -%         -          -  km/h    1024.1 hpa     21.9º    0.0 mm
   24-11-2020    07:20        - º(----)      -%         -          -  km/h    1024.0 hpa     21.8º    0.0 mm
   24-11-2020    07:15        - º(----)      -%         -          -  km/h    1023.9 hpa     21.7º    0.0 mm
   24-11-2020    07:10        - º(----)      -%         -          -  km/h    1023.9 hpa     21.6º    0.0 mm
   24-11-2020    07:05        - º(----)      -%         -          -  km/h    1023.8 hpa     21.7º    0.0 mm
   24-11-2020    07:00        - º(----)      -%         -          -  km/h    1023.8 hpa     21.8º    0.0 mm
   24-11-2020    06:55        - º(----)      -%         -          -  km/h    1023.8 hpa     21.7º    0.0 mm
   24-11-2020    06:50        - º(----)      -%         -          -  km/h    1023.8 hpa     21.7º    0.0 mm
   24-11-2020    06:45        - º(----)      -%         -          -  km/h    1023.8 hpa     21.8º    0.0 mm
   24-11-2020    06:40        - º(----)      -%         -          -  km/h    1023.7 hpa     21.8º    0.0 mm
   24-11-2020    06:35        - º(----)      -%         -          -  km/h    1023.6 hpa     21.8º    0.0 mm
   24-11-2020    06:30        - º(----)      -%         -          -  km/h    1023.4 hpa     21.8º    0.0 mm
   24-11-2020    06:25        - º(----)      -%         -          -  km/h    1023.5 hpa     21.9º    0.0 mm
   24-11-2020    06:20        - º(----)      -%         -          -  km/h    1023.4 hpa     21.8º    0.0 mm
   24-11-2020    06:15        - º(----)      -%         -          -  km/h    1023.4 hpa     21.9º    0.0 mm
   24-11-2020    06:10        - º(----)      -%         -          -  km/h    1023.6 hpa     22.0º    0.0 mm
   24-11-2020    06:05        - º(----)      -%         -          -  km/h    1023.5 hpa     21.9º    0.0 mm
   24-11-2020    06:00        - º(----)      -%         -          -  km/h    1023.5 hpa     22.0º    0.0 mm
   24-11-2020    05:55        - º(----)      -%         -          -  km/h    1023.5 hpa     22.1º    0.0 mm
   24-11-2020    05:50       9.9º(-0.0)     83%         -          -  km/h    1023.6 hpa     22.3º    0.0 mm
   24-11-2020    05:45       9.9º(-0.0)     83%      022 (N)      1.6 km/h    1023.5 hpa     22.1º    0.0 mm
   24-11-2020    05:40       9.9º(-0.2)     83%      067(NE)      3.2 km/h    1023.5 hpa     21.9º    0.0 mm
   24-11-2020    05:35      10.0º(-0.1)     83%      045(NE)      4.8 km/h    1023.5 hpa     21.9º    0.0 mm
   24-11-2020    05:30      10.0º(-0.1)     83%      022 (N)      4.8 km/h    1023.5 hpa     21.9º    0.0 mm
   24-11-2020    05:25      10.0º(-0.1)     83%      045(NE)      6.4 km/h    1023.5 hpa     21.9º    0.0 mm
   24-11-2020    05:20      10.0º(-0.1)     82%      045(NE)      4.8 km/h    1023.6 hpa     22.0º    0.0 mm
   24-11-2020    05:15      10.1º(-0.0)     82%      045(NE)      3.2 km/h    1023.5 hpa     22.0º    0.0 mm
   24-11-2020    05:10      10.0º(-0.1)     82%      045(NE)      4.8 km/h    1023.6 hpa     22.0º    0.0 mm
   24-11-2020    05:05       9.9º(-0.2)     82%      045(NE)      4.8 km/h    1023.5 hpa     22.0º    0.0 mm
   24-11-2020    05:00       9.9º(-0.2)     82%      022 (N)      4.8 km/h    1023.6 hpa     22.0º    0.0 mm
   24-11-2020    04:55       9.9º(-0.3)     82%      045(NE)      4.8 km/h    1023.6 hpa     22.0º    0.0 mm
   24-11-2020    04:50      10.0º(-0.2)     82%      000 (N)      4.8 km/h    1023.7 hpa     22.1º    0.0 mm
   24-11-2020    04:45      10.1º(-0.1)     81%      022 (N)      4.8 km/h    1023.7 hpa     22.1º    0.0 mm
   24-11-2020    04:40      10.2º(-0.0)     81%      000 (N)      3.2 km/h    1023.6 hpa     22.1º    0.0 mm
   24-11-2020    04:35      10.2º(-0.0)     81%      045(NE)      3.2 km/h    1023.6 hpa     22.1º    0.0 mm
   24-11-2020    04:30      10.3º(+0.0)     81%      045(NE)      4.8 km/h    1023.7 hpa     22.1º    0.0 mm
   24-11-2020    04:25      10.3º(+0.0)     81%      022 (N)      3.2 km/h    1023.7 hpa     22.1º    0.0 mm
   24-11-2020    04:20      10.3º(-0.1)     81%      045(NE)      4.8 km/h    1023.8 hpa     22.2º    0.0 mm
   24-11-2020    04:15      10.4º(-0.0)     80%      045(NE)      4.8 km/h    1023.8 hpa     22.2º    0.0 mm
   24-11-2020    04:10      10.4º(-0.1)     80%      045(NE)      4.8 km/h    1023.8 hpa     22.2º    0.0 mm
   24-11-2020    04:05      10.4º(-0.2)     80%      045(NE)      4.8 km/h    1023.9 hpa     22.2º    0.0 mm
   24-11-2020    04:00      10.4º(-0.3)     80%      045(NE)      4.8 km/h    1023.9 hpa     22.2º    0.0 mm
   24-11-2020    03:55      10.5º(-0.2)     80%      022 (N)      4.8 km/h    1024.0 hpa     22.2º    0.0 mm
   24-11-2020    03:50      10.6º(-0.2)     80%      045(NE)      4.8 km/h    1023.9 hpa     22.3º    0.0 mm
   24-11-2020    03:45      10.6º(-0.2)     79%      022 (N)      4.8 km/h    1024.0 hpa     22.3º    0.0 mm
   24-11-2020    03:40      10.7º(-0.2)     79%      045(NE)      4.8 km/h    1024.0 hpa     22.3º    0.0 mm
   24-11-2020    03:35      10.7º(-0.2)     79%      045(NE)      4.8 km/h    1024.1 hpa     22.3º    0.0 mm
   24-11-2020    03:30      10.8º(-0.2)     79%      045(NE)      4.8 km/h    1024.1 hpa     22.3º    0.0 mm
   24-11-2020    03:25      10.8º(-0.3)     78%      045(NE)      6.4 km/h    1024.1 hpa     22.4º    0.0 mm
   24-11-2020    03:20      10.9º(-0.2)     78%      045(NE)      4.8 km/h    1024.1 hpa     22.4º    0.0 mm
   24-11-2020    03:15      11.0º(-0.1)     78%      022 (N)      3.2 km/h    1024.1 hpa     22.4º    0.0 mm
   24-11-2020    03:10      11.0º(-0.2)     78%      045(NE)      4.8 km/h    1024.1 hpa     22.4º    0.0 mm
   24-11-2020    03:05      11.0º(-0.2)     78%      045(NE)      3.2 km/h    1024.2 hpa     22.4º    0.0 mm
   24-11-2020    03:00      11.0º(-0.2)     78%      045(NE)      4.8 km/h    1024.2 hpa     22.4º    0.0 mm
   24-11-2020    02:55      11.1º(-0.2)     78%      045(NE)      4.8 km/h    1024.3 hpa     22.4º    0.0 mm
   24-11-2020    02:50      11.1º(-0.2)     78%      045(NE)      4.8 km/h    1024.4 hpa     22.4º    0.0 mm
   24-11-2020    02:45      11.1º(-0.2)     77%      022 (N)      4.8 km/h    1024.4 hpa     22.4º    0.0 mm
   24-11-2020    02:40      11.1º(-0.2)     78%      045(NE)      4.8 km/h    1024.4 hpa     22.4º    0.0 mm
   24-11-2020    02:35      11.0º(-0.3)     78%      067(NE)      4.8 km/h    1024.4 hpa     22.6º    0.0 mm
   24-11-2020    02:30      11.0º(-0.3)     78%      022 (N)      4.8 km/h    1024.5 hpa     22.6º    0.0 mm
   24-11-2020    02:25      11.1º(-0.2)     78%      045(NE)      3.2 km/h    1024.4 hpa     22.6º    0.0 mm
   24-11-2020    02:20      11.1º(-0.3)     78%      045(NE)      4.8 km/h    1024.5 hpa     22.6º    0.0 mm
   24-11-2020    02:15      11.1º(-0.4)     78%      022 (N)      3.2 km/h    1024.5 hpa     22.7º    0.0 mm
   24-11-2020    02:10      11.1º(-0.5)     77%      022 (N)      3.2 km/h    1024.6 hpa     22.7º    0.0 mm
   24-11-2020    02:05      11.1º(-0.5)     77%      022 (N)      4.8 km/h    1024.5 hpa     22.7º    0.0 mm
   24-11-2020    02:00      11.2º(-0.4)     77%      000 (N)      3.2 km/h    1024.6 hpa     22.7º    0.0 mm
   24-11-2020    01:55      11.2º(-0.5)     76%      022 (N)      3.2 km/h    1024.7 hpa     22.8º    0.0 mm
   24-11-2020    01:50      11.3º(-0.4)     76%      045(NE)      3.2 km/h    1024.7 hpa     22.8º    0.0 mm
   24-11-2020    01:45      11.3º(-0.5)     75%      000 (N)      4.8 km/h    1024.7 hpa     22.8º    0.0 mm
   24-11-2020    01:40      11.3º(-0.5)     75%      000 (N)      4.8 km/h    1024.8 hpa     22.8º    0.0 mm
   24-11-2020    01:35      11.4º(-0.4)     75%      000 (N)      4.8 km/h    1024.8 hpa     22.8º    0.0 mm
   24-11-2020    01:30      11.4º(-0.5)     74%      022 (N)      3.2 km/h    1024.8 hpa     22.8º    0.0 mm
   24-11-2020    01:25      11.4º(-0.6)     74%      022 (N)      3.2 km/h    1024.9 hpa     22.8º    0.0 mm
   24-11-2020    01:20      11.5º(-0.6)     74%      045(NE)      3.2 km/h    1024.9 hpa     22.8º    0.0 mm
   24-11-2020    01:15      11.6º(-0.5)     74%      022 (N)      3.2 km/h    1024.9 hpa     22.9º    0.0 mm
   24-11-2020    01:10      11.6º(-0.6)     74%      045(NE)      3.2 km/h    1024.9 hpa     22.9º    0.0 mm
   24-11-2020    01:05      11.7º(-0.5)     74%      045(NE)      3.2 km/h    1024.9 hpa     22.9º    0.0 mm
   24-11-2020    01:00      11.7º(-0.5)     74%      045(NE)      3.2 km/h    1024.8 hpa     23.1º    0.0 mm
   24-11-2020    00:55      11.7º(----)     73%      045(NE)      3.2 km/h    1024.8 hpa     23.1º    0.0 mm
   24-11-2020    00:50      11.7º(----)     73%      045(NE)      4.8 km/h    1024.8 hpa     23.1º    0.0 mm
   24-11-2020    00:45      11.8º(----)     72%      045(NE)      3.2 km/h    1024.8 hpa     23.1º    0.0 mm
   24-11-2020    00:40      11.8º(----)     72%      022 (N)      3.2 km/h    1024.8 hpa     23.1º    0.0 mm
   24-11-2020    00:35      11.9º(----)     71%      022 (N)      4.8 km/h    1024.9 hpa     23.1º    0.0 mm
   24-11-2020    00:30      12.1º(----)     71%      022 (N)      4.8 km/h    1024.8 hpa     23.2º    0.0 mm
   24-11-2020    00:25      12.2º(----)     70%      022 (N)      3.2 km/h    1024.9 hpa     23.2º    0.0 mm
   24-11-2020    00:20      12.2º(----)     72%      045(NE)      3.2 km/h    1024.9 hpa     23.2º    0.0 mm
   24-11-2020    00:15      12.2º(----)     70%      045(NE)      4.8 km/h    1024.9 hpa     23.3º    0.0 mm
   24-11-2020    00:10      12.2º(----)     69%      045(NE)      4.8 km/h    1024.9 hpa     23.3º    0.0 mm
   24-11-2020    00:05      12.3º(----)     69%      022 (N)      4.8 km/h    1025.0 hpa     23.3º    0.0 mm
   24-11-2020    00:00      12.3º(----)     69%      045(NE)      3.2 km/h    1025.0 hpa     23.4º    0.0 mm